Time;durP1;ratioP1;P1;durP2;ratioP2;P2;SDS_P1;SDS_P2;PMS_P1;PMS_P2;Temp;Humidity;BMP_temperature;BMP_pressure;BME280_temperature;BME280_humidity;BME280_pressure;Samples;Min_cycle;Max_cycle;Signal;HPM_P1;HPM_P2
2022/06/13 00:01:20;;;;;;;6.00;4.30;;;;;;100411.67;;;;108119;1270;22922;-35
2022/06/13 00:03:47;;;;;;;5.20;4.30;;;;;;100416.19;;;;108123;1272;22640;-35
2022/06/13 00:06:14;;;;;;;5.80;4.30;;;;;;100423.33;;;;108110;1266;25355;-35
2022/06/13 00:08:42;;;;;;;6.40;4.50;;;;;;100430.65;;;;108116;1272;22545;-35
2022/06/13 00:11:11;;;;;;;6.80;4.50;;;;;;100439.30;;;;108119;1272;22536;-35
2022/06/13 00:13:38;;;;;;;6.10;4.40;;;;;;100440.13;;;;108108;1270;25364;-35
2022/06/13 00:16:06;;;;;;;6.00;4.30;;;;;;100435.83;;;;108115;1272;25892;-36
2022/06/13 00:18:33;;;;;;;5.70;4.80;;;;;;100426.40;;;;108109;1272;22569;-35
2022/06/13 00:21:00;;;;;;;6.90;4.80;;;;;;100422.77;;;;108108;1269;24381;-35
2022/06/13 00:23:28;;;;;;;6.90;4.50;;;;;;100430.30;;;;108113;1266;22921;-35
2022/06/13 00:25:55;;;;;;;7.40;4.60;;;;;;100432.56;;;;108111;1270;23863;-35
2022/06/13 00:28:23;;;;;;;5.70;4.50;;;;;;100433.61;;;;108104;1267;23158;-35
2022/06/13 00:30:50;;;;;;;6.00;4.40;;;;;;100436.41;;;;108114;1270;24007;-35
2022/06/13 00:33:18;;;;;;;7.40;5.00;;;;;;100442.35;;;;108112;1270;22590;-35
2022/06/13 00:35:45;;;;;;;8.00;4.90;;;;;;100446.49;;;;108118;1270;24295;-35
2022/06/13 00:38:12;;;;;;;7.50;5.20;;;;;;100455.36;;;;108118;1267;22584;-35
2022/06/13 00:40:40;;;;;;;6.70;5.20;;;;;;100463.23;;;;108107;1271;22542;-35
2022/06/13 00:43:08;;;;;;;7.30;4.80;;;;;;100476.09;;;;108114;1270;25279;-35
2022/06/13 00:45:36;;;;;;;5.80;4.50;;;;;;100491.48;;;;108092;1264;22969;-35
2022/06/13 00:48:03;;;;;;;6.40;5.20;;;;;;100500.02;;;;108118;1272;24215;-35
2022/06/13 00:50:30;;;;;;;6.40;4.90;;;;;;100519.89;;;;108119;1272;22553;-35
2022/06/13 00:52:58;;;;;;;7.70;5.30;;;;;;100517.06;;;;108105;1266;24377;-35
2022/06/13 00:55:25;;;;;;;6.70;5.30;;;;;;100545.44;;;;108121;1266;22946;-34
2022/06/13 00:57:53;;;;;;;7.00;5.50;;;;;;100550.98;;;;108107;1274;22534;-34
2022/06/13 01:00:20;;;;;;;6.30;5.30;;;;;;100543.29;;;;108104;1270;22543;-35
2022/06/13 01:02:48;;;;;;;7.60;5.90;;;;;;100535.41;;;;108133;1270;23925;-34
2022/06/13 01:05:15;;;;;;;7.00;5.70;;;;;;100524.73;;;;108112;1266;22544;-34
2022/06/13 01:07:43;;;;;;;7.30;5.60;;;;;;100512.20;;;;108141;1271;22645;-34
2022/06/13 01:12:56;;;;;;;7.90;5.40;;;;;;100498.02;;;;108125;1270;22590;-35
2022/06/13 01:15:23;;;;;;;7.50;5.00;;;;;;100498.88;;;;108105;1270;22605;-35
2022/06/13 01:17:50;;;;;;;5.90;4.80;;;;;;100490.72;;;;108124;1271;22553;-35
2022/06/13 01:20:18;;;;;;;8.20;5.50;;;;;;100487.73;;;;108095;1270;23940;-35
2022/06/13 01:22:45;;;;;;;7.30;5.10;;;;;;100472.13;;;;108100;1270;22542;-35
2022/06/13 01:25:13;;;;;;;6.20;5.00;;;;;;100468.69;;;;108119;1267;23845;-36
2022/06/13 01:27:40;;;;;;;6.70;5.10;;;;;;100478.14;;;;108147;1270;22685;-35
2022/06/13 01:30:07;;;;;;;6.90;4.90;;;;;;100474.75;;;;108105;1271;22526;-36
2022/06/13 01:32:35;;;;;;;6.50;5.20;;;;;;100460.30;;;;108128;1264;22963;-35
2022/06/13 01:35:02;;;;;;;7.30;5.40;;;;;;100440.17;;;;108123;1267;25397;-36
2022/06/13 01:37:29;;;;;;;5.80;4.50;;;;;;100427.65;;;;108122;1270;22982;-35
2022/06/13 01:39:57;;;;;;;7.00;4.80;;;;;;100425.48;;;;108103;1271;22545;-35
2022/06/13 01:42:24;;;;;;;6.90;4.90;;;;;;100423.96;;;;108104;1270;22603;-35
2022/06/13 01:44:52;;;;;;;5.90;4.70;;;;;;100423.86;;;;108083;1272;22550;-35
2022/06/13 01:47:19;;;;;;;6.90;4.80;;;;;;100420.80;;;;108131;1270;22556;-35
2022/06/13 01:49:47;;;;;;;7.10;4.60;;;;;;100417.98;;;;108118;1270;24187;-35
2022/06/13 01:52:14;;;;;;;6.50;4.70;;;;;;100416.59;;;;108099;1267;22741;-34
2022/06/13 01:54:41;;;;;;;6.70;5.00;;;;;;100411.79;;;;108087;1270;22958;-34
2022/06/13 01:57:09;;;;;;;6.30;4.40;;;;;;100402.77;;;;108087;1268;23017;-35
2022/06/13 01:59:37;;;;;;;7.00;4.60;;;;;;100395.61;;;;108098;1264;22490;-35
2022/06/13 02:02:04;;;;;;;5.60;4.40;;;;;;100387.55;;;;108100;1267;22738;-35
2022/06/13 02:04:32;;;;;;;5.60;4.40;;;;;;100385.48;;;;108101;1271;23119;-35
2022/06/13 02:06:59;;;;;;;6.70;4.10;;;;;;100383.84;;;;108118;1270;22556;-34
2022/06/13 02:09:26;;;;;;;6.00;4.10;;;;;;100385.05;;;;108107;1270;22699;-33
2022/06/13 02:11:54;;;;;;;5.90;4.50;;;;;;100384.54;;;;108108;1274;22623;-35
2022/06/13 02:14:21;;;;;;;6.70;4.00;;;;;;100385.06;;;;108130;1272;22648;-34
2022/06/13 02:16:49;;;;;;;5.00;3.90;;;;;;100382.23;;;;108129;1264;22739;-35
2022/06/13 02:19:16;;;;;;;6.50;3.70;;;;;;100380.05;;;;108108;1270;22536;-35
2022/06/13 02:21:43;;;;;;;6.10;3.90;;;;;;100373.87;;;;108126;1270;24294;-35
2022/06/13 02:24:11;;;;;;;6.40;4.10;;;;;;100373.80;;;;108093;1270;22545;-35
2022/06/13 02:26:38;;;;;;;5.00;3.70;;;;;;100371.48;;;;108117;1270;23715;-35
2022/06/13 02:29:06;;;;;;;5.70;3.50;;;;;;100370.61;;;;108093;1263;22886;-35
2022/06/13 02:31:33;;;;;;;6.10;3.50;;;;;;100374.30;;;;108101;1267;23865;-35
2022/06/13 02:34:01;;;;;;;6.00;3.80;;;;;;100374.83;;;;108110;1264;23927;-36
2022/06/13 02:36:28;;;;;;;6.20;3.70;;;;;;100367.41;;;;108109;1270;25361;-35
2022/06/13 02:38:55;;;;;;;5.60;3.80;;;;;;100362.35;;;;108037;1275;25911;-36
2022/06/13 02:41:23;;;;;;;5.70;3.50;;;;;;100354.38;;;;108088;1267;24413;-36
2022/06/13 02:43:50;;;;;;;6.50;3.40;;;;;;100356.92;;;;108109;1266;22574;-36
2022/06/13 02:46:18;;;;;;;6.60;3.50;;;;;;100355.52;;;;108111;1271;22542;-36
2022/06/13 02:48:46;;;;;;;5.30;3.50;;;;;;100344.57;;;;108094;1270;24039;-36
2022/06/13 02:51:14;;;;;;;6.00;3.90;;;;;;100335.55;;;;108100;1268;22660;-36
2022/06/13 02:53:41;;;;;;;6.20;3.50;;;;;;100326.66;;;;108123;1274;23027;-34
2022/06/13 02:56:08;;;;;;;7.20;3.60;;;;;;100327.45;;;;108111;1267;24311;-35
2022/06/13 02:58:36;;;;;;;6.90;3.70;;;;;;100329.98;;;;108117;1267;25381;-35
2022/06/13 03:01:03;;;;;;;6.70;3.60;;;;;;100325.77;;;;108129;1267;25249;-35
2022/06/13 03:03:31;;;;;;;6.50;3.70;;;;;;100324.03;;;;108094;1265;22872;-35
2022/06/13 03:05:58;;;;;;;6.70;3.80;;;;;;100319.23;;;;108113;1270;22680;-40
2022/06/13 03:08:26;;;;;;;6.80;3.80;;;;;;100311.27;;;;108120;1268;22613;-34
2022/06/13 03:10:53;;;;;;;7.10;3.90;;;;;;100306.84;;;;108137;1264;22691;-35
2022/06/13 03:13:20;;;;;;;6.80;3.60;;;;;;100307.89;;;;108131;1268;24224;-35
2022/06/13 03:15:48;;;;;;;6.40;3.70;;;;;;100314.38;;;;108133;1267;22608;-35
2022/06/13 03:18:15;;;;;;;5.60;3.30;;;;;;100314.52;;;;108138;1270;22602;-34
2022/06/13 03:20:43;;;;;;;6.80;3.40;;;;;;100310.77;;;;108122;1274;22843;-35
2022/06/13 03:23:12;;;;;;;5.90;3.50;;;;;;100313.70;;;;108120;1270;22547;-35
2022/06/13 03:25:40;;;;;;;5.80;3.40;;;;;;100316.17;;;;108165;1274;22531;-35
2022/06/13 03:28:09;;;;;;;6.40;3.10;;;;;;100314.41;;;;108138;1267;22551;-35
2022/06/13 03:30:36;;;;;;;5.00;3.20;;;;;;100310.30;;;;108105;1262;22541;-35
2022/06/13 03:35:48;;;;;;;4.80;3.10;;;;;;100312.71;;;;108128;1267;24053;-35
2022/06/13 03:38:16;;;;;;;6.40;3.60;;;;;;100318.13;;;;108141;1263;23077;-35
2022/06/13 03:40:43;;;;;;;6.50;3.60;;;;;;100318.31;;;;108108;1264;22541;-35
2022/06/13 03:43:11;;;;;;;6.70;3.50;;;;;;100319.85;;;;108099;1266;25065;-35
2022/06/13 03:45:38;;;;;;;5.50;3.10;;;;;;100319.55;;;;108126;1265;22965;-35
2022/06/13 03:48:06;;;;;;;5.60;3.50;;;;;;100319.11;;;;108126;1271;22936;-35
2022/06/13 03:50:33;;;;;;;5.40;3.20;;;;;;100319.64;;;;108112;1264;22856;-35
2022/06/13 03:53:00;;;;;;;5.20;2.90;;;;;;100322.19;;;;108130;1263;24872;-35
2022/06/13 03:55:29;;;;;;;6.80;3.40;;;;;;100330.73;;;;108118;1272;22651;-35
2022/06/13 03:57:56;;;;;;;5.50;3.20;;;;;;100335.98;;;;108092;1271;22525;-35
2022/06/13 04:00:24;;;;;;;5.00;3.10;;;;;;100348.17;;;;108123;1262;22859;-35
2022/06/13 04:02:51;;;;;;;6.50;3.60;;;;;;100360.50;;;;108123;1271;22803;-35
2022/06/13 04:05:19;;;;;;;6.20;3.30;;;;;;100376.45;;;;108106;1266;22598;-35
2022/06/13 04:07:47;;;;;;;5.10;3.00;;;;;;100381.08;;;;108141;1271;22683;-35
2022/06/13 04:10:15;;;;;;;5.00;3.20;;;;;;100379.30;;;;108115;1270;22556;-35
2022/06/13 04:12:42;;;;;;;6.60;3.40;;;;;;100376.02;;;;108124;1267;22814;-35
2022/06/13 04:15:10;;;;;;;6.10;3.40;;;;;;100370.30;;;;108117;1270;25904;-35
2022/06/13 04:17:37;;;;;;;5.80;3.50;;;;;;100368.83;;;;108106;1274;22547;-35
2022/06/13 04:20:04;;;;;;;5.90;3.40;;;;;;100373.18;;;;108121;1271;22605;-35
2022/06/13 04:22:32;;;;;;;4.60;3.20;;;;;;100376.34;;;;108127;1262;25367;-35
2022/06/13 04:24:59;;;;;;;4.90;3.10;;;;;;100374.15;;;;108120;1262;22541;-35
2022/06/13 04:27:27;;;;;;;7.40;3.60;;;;;;100366.81;;;;108123;1268;24249;-35
2022/06/13 04:29:54;;;;;;;5.70;3.10;;;;;;100362.48;;;;108104;1270;25385;-35
2022/06/13 04:32:22;;;;;;;5.30;3.30;;;;;;100368.86;;;;108158;1267;22547;-34
2022/06/13 04:34:49;;;;;;;6.20;3.40;;;;;;100367.86;;;;108126;1264;22532;-35
2022/06/13 04:37:17;;;;;;;5.00;3.50;;;;;;100364.45;;;;108148;1263;22661;-35
2022/06/13 04:39:44;;;;;;;5.70;3.40;;;;;;100364.42;;;;108102;1263;22667;-35
2022/06/13 04:42:11;;;;;;;6.40;3.50;;;;;;100356.06;;;;108128;1263;24220;-35
2022/06/13 04:44:39;;;;;;;5.10;3.10;;;;;;100352.06;;;;108115;1263;22540;-35
2022/06/13 04:47:06;;;;;;;6.00;3.60;;;;;;100342.08;;;;108130;1263;22858;-35
2022/06/13 04:49:34;;;;;;;5.60;3.40;;;;;;100339.30;;;;108131;1271;22531;-35
2022/06/13 04:52:01;;;;;;;4.90;3.40;;;;;;100335.30;;;;108127;1274;22547;-35
2022/06/13 04:54:29;;;;;;;6.10;3.50;;;;;;100331.95;;;;108097;1270;22547;-35
2022/06/13 04:56:56;;;;;;;5.70;3.50;;;;;;100329.66;;;;108119;1263;22627;-35
2022/06/13 04:59:24;;;;;;;5.50;3.80;;;;;;100328.97;;;;108126;1264;22820;-35
2022/06/13 05:01:51;;;;;;;5.80;4.00;;;;;;100328.05;;;;108091;1264;22788;-35
2022/06/13 05:04:18;;;;;;;6.00;3.70;;;;;;100334.29;;;;108126;1270;22908;-35
2022/06/13 05:06:46;;;;;;;6.00;3.20;;;;;;100335.38;;;;108130;1270;22571;-35
2022/06/13 05:09:13;;;;;;;4.50;3.50;;;;;;100335.96;;;;108095;1270;24372;-35
2022/06/13 05:11:40;;;;;;;6.50;4.10;;;;;;100331.24;;;;108109;1270;25503;-35
2022/06/13 05:14:08;;;;;;;6.10;3.60;;;;;;100322.23;;;;108118;1263;22756;-35
2022/06/13 05:16:35;;;;;;;5.80;3.70;;;;;;100316.58;;;;108108;1266;23989;-35
2022/06/13 05:19:03;;;;;;;5.90;4.00;;;;;;100313.68;;;;108127;1270;25383;-35
2022/06/13 05:21:30;;;;;;;5.40;3.80;;;;;;100313.90;;;;108130;1270;22852;-35
2022/06/13 05:23:58;;;;;;;5.80;4.00;;;;;;100313.90;;;;108123;1262;22592;-35
2022/06/13 05:26:29;;;;;;;6.60;4.20;;;;;;100314.96;;;;108145;1270;22616;-35
2022/06/13 05:28:56;;;;;;;7.20;4.10;;;;;;100314.09;;;;108129;1262;22789;-35
2022/06/13 05:31:24;;;;;;;6.10;4.20;;;;;;100316.02;;;;108101;1274;22576;-35
2022/06/13 05:33:51;;;;;;;6.80;4.90;;;;;;100320.77;;;;108104;1270;25433;-35
2022/06/13 05:36:19;;;;;;;5.80;4.00;;;;;;100310.28;;;;108097;1263;25888;-35
2022/06/13 05:38:46;;;;;;;6.50;4.10;;;;;;100305.15;;;;108115;1262;22893;-35
2022/06/13 05:41:13;;;;;;;6.20;4.00;;;;;;100301.57;;;;108119;1270;22608;-35
2022/06/13 05:43:41;;;;;;;6.40;4.20;;;;;;100303.04;;;;108100;1263;22543;-35
2022/06/13 05:46:08;;;;;;;6.00;4.20;;;;;;100302.23;;;;108102;1274;24039;-35
2022/06/13 05:48:36;;;;;;;6.30;4.40;;;;;;100299.01;;;;108090;1270;23937;-35
2022/06/13 05:51:03;;;;;;;6.80;4.20;;;;;;100300.73;;;;108090;1263;22780;-35
2022/06/13 05:53:30;;;;;;;6.70;4.40;;;;;;100303.41;;;;108092;1266;22526;-35
2022/06/13 05:55:58;;;;;;;7.90;4.60;;;;;;100301.59;;;;108096;1264;22581;-35
2022/06/13 05:58:25;;;;;;;7.00;4.20;;;;;;100302.41;;;;108107;1263;22992;-35
2022/06/13 06:00:53;;;;;;;6.80;4.50;;;;;;100301.05;;;;108108;1270;23207;-35
2022/06/13 06:03:20;;;;;;;5.90;4.10;;;;;;100296.15;;;;108124;1262;22606;-34
2022/06/13 06:05:47;;;;;;;7.00;4.20;;;;;;100297.36;;;;108132;1263;22960;-35
2022/06/13 06:08:15;;;;;;;6.20;4.60;;;;;;100297.91;;;;108112;1266;24371;-35
2022/06/13 06:10:42;;;;;;;6.10;4.40;;;;;;100296.77;;;;107899;1267;318718;-35
2022/06/13 06:13:10;;;;;;;5.90;4.30;;;;;;100293.23;;;;108093;1268;22542;-35
2022/06/13 06:15:39;;;;;;;6.30;4.50;;;;;;100290.55;;;;108096;1270;22765;-35
2022/06/13 06:18:06;;;;;;;6.20;4.20;;;;;;100283.00;;;;108117;1270;22534;-35
2022/06/13 06:20:34;;;;;;;5.70;4.30;;;;;;100276.92;;;;108046;1271;22949;-33
2022/06/13 06:23:01;;;;;;;7.20;5.20;;;;;;100267.31;;;;108053;1272;22756;-33
2022/06/13 06:25:29;;;;;;;7.70;5.30;;;;;;100264.84;;;;108074;1264;22552;-33
2022/06/13 06:27:56;;;;;;;8.50;5.50;;;;;;100261.40;;;;108115;1266;25370;-33
2022/06/13 06:30:23;;;;;;;7.50;5.80;;;;;;100259.00;;;;108070;1264;22551;-36
2022/06/13 06:32:51;;;;;;;7.80;6.10;;;;;;100256.64;;;;108054;1264;22928;-33
2022/06/13 06:35:18;;;;;;;7.60;6.20;;;;;;100249.58;;;;108076;1272;24617;-33
2022/06/13 06:37:46;;;;;;;9.10;6.60;;;;;;100243.20;;;;108130;1262;22943;-34
2022/06/13 06:40:13;;;;;;;9.70;6.90;;;;;;100245.67;;;;108105;1263;24207;-35
2022/06/13 06:42:41;;;;;;;8.50;6.40;;;;;;100244.44;;;;108138;1270;22545;-34
2022/06/13 06:45:08;;;;;;;7.80;6.50;;;;;;100236.59;;;;108112;1270;22538;-34
2022/06/13 06:47:36;;;;;;;8.10;6.80;;;;;;100239.38;;;;108106;1266;22556;-35
2022/06/13 06:50:03;;;;;;;8.90;7.10;;;;;;100243.60;;;;108089;1270;22712;-35
2022/06/13 06:52:31;;;;;;;9.00;6.40;;;;;;100239.48;;;;108134;1262;22840;-34
2022/06/13 07:00:29;;;;;;;7.60;6.80;;;;;;100227.02;;;;108111;1272;23869;-35
2022/06/13 07:02:57;;;;;;;8.50;7.00;;;;;;100225.02;;;;108036;1264;22857;-35
2022/06/13 07:05:24;;;;;;;8.60;7.60;;;;;;100220.86;;;;108061;1264;22727;-35
2022/06/13 07:07:51;;;;;;;9.40;7.50;;;;;;100224.09;;;;108072;1267;23997;-37
2022/06/13 07:10:19;;;;;;;7.80;6.80;;;;;;100223.23;;;;108065;1267;22545;-38
2022/06/13 07:12:46;;;;;;;9.00;7.70;;;;;;100217.70;;;;108076;1267;24321;-39
2022/06/13 07:15:13;;;;;;;8.00;7.00;;;;;;100221.02;;;;108071;1264;25227;-38
2022/06/13 07:17:41;;;;;;;8.90;7.20;;;;;;100229.05;;;;108086;1272;22574;-38
2022/06/13 07:20:08;;;;;;;12.20;8.50;;;;;;100230.05;;;;108046;1264;24164;-41
2022/06/13 07:22:36;;;;;;;9.60;7.90;;;;;;100231.41;;;;108085;1268;24061;-39
2022/06/13 07:25:03;;;;;;;12.90;7.60;;;;;;100233.63;;;;108079;1270;25910;-42
2022/06/13 07:27:30;;;;;;;8.60;7.70;;;;;;100233.23;;;;108098;1270;22599;-38
2022/06/13 07:29:58;;;;;;;10.10;7.60;;;;;;100225.30;;;;108078;1267;22544;-39
2022/06/13 07:32:26;;;;;;;8.80;7.90;;;;;;100215.14;;;;108113;1264;25240;-39
2022/06/13 07:34:54;;;;;;;10.30;8.30;;;;;;100215.25;;;;108065;1267;22607;-39
2022/06/13 07:40:02;;;;;;;8.60;7.70;;;;;;100227.80;;;;108068;1267;24352;-39
2022/06/13 07:42:30;;;;;;;8.50;7.60;;;;;;100230.86;;;;108069;1272;23823;-38
2022/06/13 07:44:57;;;;;;;8.90;8.00;;;;;;100240.85;;;;108099;1263;23011;-39
2022/06/13 07:47:25;;;;;;;9.60;8.00;;;;;;100238.48;;;;108081;1264;24189;-39
2022/06/13 07:49:54;;;;;;;9.50;8.70;;;;;;100227.95;;;;108075;1268;24190;-39
2022/06/13 07:52:21;;;;;;;11.00;10.00;;;;;;100218.37;;;;108070;1264;22579;-39
2022/06/13 07:54:49;;;;;;;9.60;8.70;;;;;;100216.23;;;;108049;1271;23909;-39
2022/06/13 07:57:16;;;;;;;9.80;8.90;;;;;;100209.50;;;;108061;1272;22690;-39
2022/06/13 07:59:43;;;;;;;10.00;9.10;;;;;;100210.66;;;;108066;1272;25352;-39
2022/06/13 08:02:11;;;;;;;9.80;8.80;;;;;;100213.42;;;;108083;1264;23870;-39
2022/06/13 08:04:38;;;;;;;10.10;9.10;;;;;;100213.73;;;;108076;1264;23919;-39
2022/06/13 08:07:05;;;;;;;9.20;8.40;;;;;;100210.35;;;;108073;1271;23861;-39
2022/06/13 08:09:33;;;;;;;9.80;8.80;;;;;;100215.69;;;;108053;1267;22507;-39
2022/06/13 08:12:01;;;;;;;10.50;9.20;;;;;;100223.80;;;;108043;1271;22960;-39
2022/06/13 08:14:28;;;;;;;9.60;8.70;;;;;;100226.13;;;;108060;1267;23517;-38
2022/06/13 08:16:56;;;;;;;10.00;8.80;;;;;;100220.50;;;;108058;1272;22849;-39
2022/06/13 08:19:23;;;;;;;10.10;9.20;;;;;;100213.70;;;;108099;1270;22612;-38
2022/06/13 08:21:51;;;;;;;9.10;8.20;;;;;;100208.05;;;;108107;1270;22611;-38
2022/06/13 08:24:19;;;;;;;9.30;8.30;;;;;;100200.95;;;;108115;1270;22612;-38
2022/06/13 08:26:46;;;;;;;9.40;8.10;;;;;;100192.92;;;;108129;1270;22620;-36
2022/06/13 08:29:14;;;;;;;8.20;7.30;;;;;;100186.03;;;;108152;1264;22683;-37
2022/06/13 08:31:42;;;;;;;8.70;7.80;;;;;;100180.17;;;;108235;1271;22561;-38
2022/06/13 08:34:10;;;;;;;8.70;7.90;;;;;;100181.59;;;;108139;1273;22606;-38
2022/06/13 08:36:37;;;;;;;8.00;7.20;;;;;;100182.39;;;;108110;1270;22541;-40
2022/06/13 08:39:05;;;;;;;9.30;7.80;;;;;;100181.17;;;;108316;1269;24020;-40
2022/06/13 08:41:32;;;;;;;10.30;8.40;;;;;;100176.48;;;;108282;1262;22669;-40
2022/06/13 08:44:00;;;;;;;8.90;7.20;;;;;;100182.77;;;;108256;1269;22839;-40
2022/06/13 08:46:28;;;;;;;9.00;6.90;;;;;;100190.02;;;;108201;1273;22539;-39
2022/06/13 08:48:55;;;;;;;9.40;7.30;;;;;;100191.57;;;;108114;1270;22540;-36
2022/06/13 08:51:23;;;;;;;10.40;7.00;;;;;;100191.17;;;;108097;1263;22788;-37
2022/06/13 08:53:50;;;;;;;8.40;6.80;;;;;;100191.69;;;;108119;1262;22544;-38
2022/06/13 08:56:17;;;;;;;8.00;6.60;;;;;;100198.14;;;;108115;1271;22558;-38
2022/06/13 08:58:45;;;;;;;6.80;5.70;;;;;;100204.11;;;;108128;1270;22602;-36
2022/06/13 09:01:12;;;;;;;7.40;6.40;;;;;;100204.77;;;;108126;1270;22573;-37
2022/06/13 09:03:40;;;;;;;6.90;6.20;;;;;;100199.70;;;;108197;1263;22821;-38
2022/06/13 09:06:08;;;;;;;7.30;6.10;;;;;;100192.66;;;;108295;1269;23250;-38
2022/06/13 09:08:36;;;;;;;8.20;5.50;;;;;;100198.92;;;;108316;1269;22949;-38
2022/06/13 09:11:03;;;;;;;6.40;5.30;;;;;;100211.20;;;;108283;1262;25430;-37
2022/06/13 09:13:31;;;;;;;6.90;5.40;;;;;;100217.39;;;;108264;1269;22670;-36
2022/06/13 09:15:58;;;;;;;5.60;5.00;;;;;;100222.34;;;;108296;1266;24322;-37
2022/06/13 09:18:25;;;;;;;7.70;5.70;;;;;;100231.02;;;;108325;1262;23020;-37
2022/06/13 09:20:54;;;;;;;7.20;5.70;;;;;;100231.15;;;;108288;1262;22532;-37
2022/06/13 09:23:21;;;;;;;6.20;4.90;;;;;;100225.65;;;;108286;1262;22680;-37
2022/06/13 09:25:48;;;;;;;8.10;5.40;;;;;;100219.48;;;;108280;1269;22572;-37
2022/06/13 09:28:16;;;;;;;5.90;4.80;;;;;;100218.79;;;;108295;1269;24223;-37
2022/06/13 09:30:43;;;;;;;6.40;5.20;;;;;;100220.99;;;;108115;1270;23995;-37
2022/06/13 09:33:10;;;;;;;6.10;5.00;;;;;;100231.08;;;;108145;1266;22555;-36
2022/06/13 09:35:38;;;;;;;5.70;4.90;;;;;;100234.15;;;;108120;1270;25830;-37
2022/06/13 09:38:05;;;;;;;6.20;5.10;;;;;;100229.64;;;;108246;1269;22821;-38
2022/06/13 09:40:33;;;;;;;6.10;4.60;;;;;;100230.80;;;;108298;1269;25218;-39
2022/06/13 09:43:00;;;;;;;7.10;4.70;;;;;;100231.64;;;;108298;1270;22576;-39
2022/06/13 09:45:28;;;;;;;7.00;4.90;;;;;;100228.33;;;;108297;1266;24321;-41
2022/06/13 09:47:55;;;;;;;5.70;4.60;;;;;;100230.70;;;;108290;1273;22550;-37
2022/06/13 09:50:23;;;;;;;6.50;5.10;;;;;;100230.94;;;;108292;1268;22921;-38
2022/06/13 09:52:50;;;;;;;6.10;4.90;;;;;;100228.05;;;;108266;1269;22757;-38
2022/06/13 09:55:19;;;;;;;9.10;5.50;;;;;;100220.77;;;;108320;1263;22544;-38
2022/06/13 09:57:47;;;;;;;8.00;6.10;;;;;;100218.52;;;;108280;1262;22744;-39
2022/06/13 10:00:15;;;;;;;7.70;6.40;;;;;;100222.10;;;;108299;1269;22547;-39
2022/06/13 10:02:43;;;;;;;7.80;5.20;;;;;;100221.13;;;;108299;1269;22799;-38
2022/06/13 10:05:10;;;;;;;8.50;6.00;;;;;;100216.89;;;;108287;1262;25272;-38
2022/06/13 10:07:38;;;;;;;7.20;5.30;;;;;;100204.27;;;;108311;1269;22859;-38
2022/06/13 10:10:05;;;;;;;8.70;5.90;;;;;;100200.66;;;;108288;1269;22549;-38
2022/06/13 10:12:32;;;;;;;7.50;5.80;;;;;;100198.51;;;;108300;1269;24425;-37
2022/06/13 10:15:00;;;;;;;7.80;5.50;;;;;;100200.14;;;;108328;1268;22563;-37
2022/06/13 10:17:27;;;;;;;8.10;5.60;;;;;;100196.36;;;;108260;1269;22567;-37
2022/06/13 10:19:54;;;;;;;7.80;5.50;;;;;;100194.42;;;;108297;1269;23935;-37
2022/06/13 10:22:22;;;;;;;7.30;5.10;;;;;;100189.16;;;;108302;1262;22558;-40
2022/06/13 10:26:44;;;;;;;7.80;5.90;;;;;;100175.71;;;;103811;1315;557286;-41
2022/06/13 10:29:10;;;;;;;8.40;5.80;;;;;;100176.08;;;;105698;1308;22856;-41
2022/06/13 10:31:36;;;;;;;6.90;5.30;;;;;;100174.37;;;;105686;1308;23789;-40
2022/06/13 10:34:02;;;;;;;7.60;5.10;;;;;;100171.67;;;;105711;1308;22516;-38
2022/06/13 10:36:28;;;;;;;7.90;5.30;;;;;;100170.10;;;;105754;1308;22518;-40
2022/06/13 10:38:55;;;;;;;6.60;5.20;;;;;;100166.45;;;;106005;1305;64899;-39
2022/06/13 10:41:21;;;;;;;7.90;5.30;;;;;;100161.41;;;;106336;1302;23729;-37
2022/06/13 10:43:47;;;;;;;6.90;5.40;;;;;;100154.84;;;;106278;1303;22524;-38
2022/06/13 10:46:14;;;;;;;6.90;5.20;;;;;;100149.35;;;;106287;1302;23844;-38
2022/06/13 10:48:40;;;;;;;6.60;5.50;;;;;;100145.95;;;;106289;1303;25010;-39
2022/06/13 10:51:06;;;;;;;7.00;5.20;;;;;;100144.26;;;;106279;1303;22632;-40
2022/06/13 10:53:32;;;;;;;7.90;5.40;;;;;;100142.88;;;;106291;1303;22631;-38
2022/06/13 10:55:58;;;;;;;7.10;5.50;;;;;;100145.84;;;;106280;1303;22923;-38
2022/06/13 10:58:24;;;;;;;6.50;5.00;;;;;;100153.71;;;;106279;1303;22536;-36
2022/06/13 11:00:50;;;;;;;6.50;4.80;;;;;;100158.48;;;;106251;1303;22518;-40
2022/06/13 11:03:16;;;;;;;7.40;4.70;;;;;;100153.56;;;;106282;1303;22515;-38
2022/06/13 11:05:42;;;;;;;6.50;4.50;;;;;;100150.73;;;;106286;1303;22810;-40
2022/06/13 11:08:08;;;;;;;7.80;4.70;;;;;;100147.08;;;;106262;1303;22596;-39
2022/06/13 11:10:34;;;;;;;7.00;4.70;;;;;;100141.44;;;;106276;1303;22906;-39
2022/06/13 11:13:00;;;;;;;6.70;4.80;;;;;;100137.25;;;;106287;1304;23813;-41
2022/06/13 11:23:40;;;;;;;7.30;4.60;;;;;;100122.09;;;;106251;1303;22521;-46
2022/06/13 11:28:50;;;;;;;6.50;4.80;;;;;;100116.77;;;;106286;1307;24179;-39
2022/06/13 11:31:16;;;;;;;6.00;4.70;;;;;;100109.14;;;;106283;1303;22744;-37
2022/06/13 11:33:42;;;;;;;5.30;4.50;;;;;;100104.98;;;;106283;1304;22511;-38
2022/06/13 11:36:08;;;;;;;5.90;4.00;;;;;;100103.60;;;;106212;1303;22904;-38
2022/06/13 11:38:34;;;;;;;5.80;4.40;;;;;;100105.71;;;;106683;1299;25294;-39
2022/06/13 11:41:00;;;;;;;5.50;4.40;;;;;;100111.75;;;;106705;1298;22521;-40
2022/06/13 11:43:26;;;;;;;6.40;4.40;;;;;;100104.98;;;;106694;1298;23571;-37
2022/06/13 11:45:52;;;;;;;6.40;4.50;;;;;;100110.23;;;;106710;1298;25435;-38
2022/06/13 11:48:18;;;;;;;5.60;4.30;;;;;;100108.78;;;;106721;1298;22519;-39
2022/06/13 11:50:44;;;;;;;7.40;4.60;;;;;;100112.36;;;;106727;1298;22837;-39
2022/06/13 11:55:55;;;;;;;6.50;4.60;;;;;;100107.73;;;;106754;1298;25246;-40
2022/06/13 11:58:21;;;;;;;5.20;4.20;;;;;;100122.77;;;;106693;1298;22518;-39
2022/06/13 12:00:48;;;;;;;4.60;4.00;;;;;;100127.67;;;;106729;1298;22500;-38
2022/06/13 12:03:14;;;;;;;5.50;4.50;;;;;;100130.70;;;;106719;1298;22507;-38
2022/06/13 12:05:40;;;;;;;5.00;4.20;;;;;;100138.00;;;;106680;1298;22511;-40
2022/06/13 12:08:06;;;;;;;5.50;4.20;;;;;;100140.90;;;;106710;1298;22512;-39
2022/06/13 12:10:32;;;;;;;5.80;4.00;;;;;;100144.69;;;;106742;1304;22501;-39
2022/06/13 12:12:58;;;;;;;5.30;4.20;;;;;;100144.17;;;;106740;1298;22515;-38
2022/06/13 12:15:24;;;;;;;6.60;4.30;;;;;;100139.03;;;;106734;1304;22525;-38
2022/06/13 12:17:50;;;;;;;4.70;3.80;;;;;;100128.19;;;;106765;1298;22526;-37
2022/06/13 12:20:16;;;;;;;5.00;4.10;;;;;;100131.28;;;;106725;1298;22660;-39
2022/06/13 12:22:42;;;;;;;4.90;3.80;;;;;;100141.70;;;;106735;1299;22644;-37
2022/06/13 12:25:08;;;;;;;5.90;4.50;;;;;;100158.48;;;;106715;1298;22478;-39
2022/06/13 12:27:34;;;;;;;5.80;4.00;;;;;;100191.15;;;;106655;1298;24236;-39
2022/06/13 12:30:01;;;;;;;5.00;3.80;;;;;;100201.98;;;;106726;1298;22522;-38
2022/06/13 12:32:27;;;;;;;5.40;3.60;;;;;;100227.62;;;;106685;1298;23693;-39
2022/06/13 12:34:53;;;;;;;6.70;3.40;;;;;;100235.78;;;;106678;1298;25288;-39
2022/06/13 12:37:18;;;;;;;4.60;3.20;;;;;;100227.23;;;;106748;1302;22514;-39
2022/06/13 12:39:44;;;;;;;5.80;3.10;;;;;;100228.85;;;;106658;1298;22946;-39
2022/06/13 12:42:11;;;;;;;4.50;3.10;;;;;;100233.30;;;;106657;1298;22595;-39
2022/06/13 12:44:37;;;;;;;4.60;3.00;;;;;;100234.06;;;;106680;1298;22909;-39
2022/06/13 12:47:03;;;;;;;5.00;3.00;;;;;;100235.54;;;;106680;1299;22526;-38
2022/06/13 12:49:29;;;;;;;4.10;2.80;;;;;;100245.98;;;;106705;1298;22625;-41
2022/06/13 12:51:55;;;;;;;4.60;2.50;;;;;;100254.05;;;;106717;1298;22529;-41
2022/06/13 12:54:21;;;;;;;4.50;3.00;;;;;;100255.84;;;;106679;1298;22610;-40
2022/06/13 12:56:48;;;;;;;4.10;2.80;;;;;;100259.08;;;;106658;1298;22564;-38
2022/06/13 12:59:15;;;;;;;5.30;3.20;;;;;;100262.77;;;;106721;1298;22518;-40
2022/06/13 13:01:41;;;;;;;4.40;3.10;;;;;;100260.45;;;;106692;1303;23774;-38
2022/06/13 13:04:09;;;;;;;5.20;3.40;;;;;;100260.09;;;;106715;1298;22675;-38
2022/06/13 13:06:35;;;;;;;3.70;2.60;;;;;;100263.35;;;;106656;1298;22508;-37
2022/06/13 13:09:01;;;;;;;5.70;2.60;;;;;;100269.55;;;;106727;1298;22506;-38
2022/06/13 13:11:29;;;;;;;4.80;2.60;;;;;;100277.03;;;;106715;1298;22508;-39
2022/06/13 13:13:55;;;;;;;4.50;2.60;;;;;;100287.35;;;;106848;1298;22718;-42